sensor_id;sensor_type;location;lat;lon;timestamp;temperature;humidity
65207;SHT31;58477;48.072;11.970;2023-10-09T00:01:50;13.53;94.86
65207;SHT31;58477;48.072;11.970;2023-10-09T00:04:16;13.51;94.84
65207;SHT31;58477;48.072;11.970;2023-10-09T00:06:42;13.47;93.98
65207;SHT31;58477;48.072;11.970;2023-10-09T00:09:14;13.39;94.58
65207;SHT31;58477;48.072;11.970;2023-10-09T00:12:34;13.48;94.19
65207;SHT31;58477;48.072;11.970;2023-10-09T00:14:59;13.30;95.29
65207;SHT31;58477;48.072;11.970;2023-10-09T00:17:34;13.09;95.79
65207;SHT31;58477;48.072;11.970;2023-10-09T00:20:02;13.00;96.35
65207;SHT31;58477;48.072;11.970;2023-10-09T00:22:34;12.93;96.50
65207;SHT31;58477;48.072;11.970;2023-10-09T00:25:03;12.75;96.87
65207;SHT31;58477;48.072;11.970;2023-10-09T00:27:37;12.69;97.14
65207;SHT31;58477;48.072;11.970;2023-10-09T00:30:04;12.55;97.78
65207;SHT31;58477;48.072;11.970;2023-10-09T00:32:31;12.49;97.78
65207;SHT31;58477;48.072;11.970;2023-10-09T00:34:59;12.55;97.59
65207;SHT31;58477;48.072;11.970;2023-10-09T00:37:44;12.35;98.03
65207;SHT31;58477;48.072;11.970;2023-10-09T00:40:10;12.36;98.11
65207;SHT31;58477;48.072;11.970;2023-10-09T00:42:48;12.34;98.12
65207;SHT31;58477;48.072;11.970;2023-10-09T00:45:14;12.31;98.45
65207;SHT31;58477;48.072;11.970;2023-10-09T00:47:50;12.35;98.16
65207;SHT31;58477;48.072;11.970;2023-10-09T00:50:16;12.53;97.51
65207;SHT31;58477;48.072;11.970;2023-10-09T00:52:48;12.56;97.11
65207;SHT31;58477;48.072;11.970;2023-10-09T00:55:40;12.60;97.43
65207;SHT31;58477;48.072;11.970;2023-10-09T00:58:11;12.60;97.34
65207;SHT31;58477;48.072;11.970;2023-10-09T01:00:41;12.63;97.14
65207;SHT31;58477;48.072;11.970;2023-10-09T01:03:16;12.66;97.21
65207;SHT31;58477;48.072;11.970;2023-10-09T01:08:19;12.70;96.86
65207;SHT31;58477;48.072;11.970;2023-10-09T01:11:05;12.77;96.87
65207;SHT31;58477;48.072;11.970;2023-10-09T01:13:44;12.67;96.90
65207;SHT31;58477;48.072;11.970;2023-10-09T01:16:16;12.56;97.03
65207;SHT31;58477;48.072;11.970;2023-10-09T01:18:46;12.62;97.08
65207;SHT31;58477;48.072;11.970;2023-10-09T01:21:19;12.80;96.33
65207;SHT31;58477;48.072;11.970;2023-10-09T01:23:49;12.86;95.89
65207;SHT31;58477;48.072;11.970;2023-10-09T01:26:30;12.95;95.18
65207;SHT31;58477;48.072;11.970;2023-10-09T01:29:11;12.93;95.25
65207;SHT31;58477;48.072;11.970;2023-10-09T01:31:46;12.96;94.68
65207;SHT31;58477;48.072;11.970;2023-10-09T01:37:19;12.73;95.72
65207;SHT31;58477;48.072;11.970;2023-10-09T01:39:49;12.73;95.85
65207;SHT31;58477;48.072;11.970;2023-10-09T01:42:16;12.69;96.27
65207;SHT31;58477;48.072;11.970;2023-10-09T01:45:01;12.75;96.29
65207;SHT31;58477;48.072;11.970;2023-10-09T01:47:38;12.75;96.11
65207;SHT31;58477;48.072;11.970;2023-10-09T01:50:05;12.80;96.13
65207;SHT31;58477;48.072;11.970;2023-10-09T01:52:37;12.76;96.00
65207;SHT31;58477;48.072;11.970;2023-10-09T01:55:03;12.75;96.03
65207;SHT31;58477;48.072;11.970;2023-10-09T01:57:49;12.67;96.31
65207;SHT31;58477;48.072;11.970;2023-10-09T02:00:14;12.62;95.86
65207;SHT31;58477;48.072;11.970;2023-10-09T02:02:48;12.65;95.47
65207;SHT31;58477;48.072;11.970;2023-10-09T02:05:13;12.57;95.60
65207;SHT31;58477;48.072;11.970;2023-10-09T02:07:39;12.48;96.01
65207;SHT31;58477;48.072;11.970;2023-10-09T02:10:17;12.46;96.24
65207;SHT31;58477;48.072;11.970;2023-10-09T02:13:05;12.46;96.13
65207;SHT31;58477;48.072;11.970;2023-10-09T02:15:37;12.38;96.47
65207;SHT31;58477;48.072;11.970;2023-10-09T02:18:06;12.26;97.01
65207;SHT31;58477;48.072;11.970;2023-10-09T02:20:51;12.26;97.06
65207;SHT31;58477;48.072;11.970;2023-10-09T02:23:27;12.20;96.95
65207;SHT31;58477;48.072;11.970;2023-10-09T02:26:17;12.14;97.43
65207;SHT31;58477;48.072;11.970;2023-10-09T02:29:05;12.21;96.94
65207;SHT31;58477;48.072;11.970;2023-10-09T02:31:43;12.31;96.85
65207;SHT31;58477;48.072;11.970;2023-10-09T02:34:19;12.28;96.47
65207;SHT31;58477;48.072;11.970;2023-10-09T02:36:49;12.31;96.49
65207;SHT31;58477;48.072;11.970;2023-10-09T02:39:15;12.22;96.52
65207;SHT31;58477;48.072;11.970;2023-10-09T02:41:55;12.29;96.50
65207;SHT31;58477;48.072;11.970;2023-10-09T02:44:28;12.21;96.34
65207;SHT31;58477;48.072;11.970;2023-10-09T02:46:57;12.32;96.03
65207;SHT31;58477;48.072;11.970;2023-10-09T02:49:24;12.31;95.97
65207;SHT31;58477;48.072;11.970;2023-10-09T02:51:50;12.36;95.55
65207;SHT31;58477;48.072;11.970;2023-10-09T02:54:19;12.29;95.57
65207;SHT31;58477;48.072;11.970;2023-10-09T02:56:53;12.39;95.08
65207;SHT31;58477;48.072;11.970;2023-10-09T02:59:23;12.48;94.80
65207;SHT31;58477;48.072;11.970;2023-10-09T03:01:49;12.55;94.65
65207;SHT31;58477;48.072;11.970;2023-10-09T03:04:15;12.56;94.64
65207;SHT31;58477;48.072;11.970;2023-10-09T03:06:41;12.53;94.51
65207;SHT31;58477;48.072;11.970;2023-10-09T03:09:20;12.59;94.23
65207;SHT31;58477;48.072;11.970;2023-10-09T03:11:57;12.57;94.38
65207;SHT31;58477;48.072;11.970;2023-10-09T03:14:30;12.52;94.64
65207;SHT31;58477;48.072;11.970;2023-10-09T03:16:56;12.35;95.28
65207;SHT31;58477;48.072;11.970;2023-10-09T03:19:24;12.34;95.48
65207;SHT31;58477;48.072;11.970;2023-10-09T03:21:50;12.25;95.37
65207;SHT31;58477;48.072;11.970;2023-10-09T03:24:16;12.06;95.82
65207;SHT31;58477;48.072;11.970;2023-10-09T03:26:41;11.98;95.93
65207;SHT31;58477;48.072;11.970;2023-10-09T03:29:10;12.01;95.74
65207;SHT31;58477;48.072;11.970;2023-10-09T03:31:36;11.94;95.70
65207;SHT31;58477;48.072;11.970;2023-10-09T03:34:02;11.81;96.40
65207;SHT31;58477;48.072;11.970;2023-10-09T03:36:28;11.78;96.40
65207;SHT31;58477;48.072;11.970;2023-10-09T03:38:56;11.78;96.47
65207;SHT31;58477;48.072;11.970;2023-10-09T03:41:25;11.84;96.49
65207;SHT31;58477;48.072;11.970;2023-10-09T03:43:54;11.71;96.12
65207;SHT31;58477;48.072;11.970;2023-10-09T03:46:22;11.85;96.20
65207;SHT31;58477;48.072;11.970;2023-10-09T03:48:57;11.92;95.24
65207;SHT31;58477;48.072;11.970;2023-10-09T03:51:26;11.81;95.29
65207;SHT31;58477;48.072;11.970;2023-10-09T03:53:52;11.75;95.59
65207;SHT31;58477;48.072;11.970;2023-10-09T03:56:20;11.56;96.04
65207;SHT31;58477;48.072;11.970;2023-10-09T03:58:49;11.66;96.06
65207;SHT31;58477;48.072;11.970;2023-10-09T04:01:17;11.88;95.74
65207;SHT31;58477;48.072;11.970;2023-10-09T04:03:58;11.84;95.76
65207;SHT31;58477;48.072;11.970;2023-10-09T04:06:29;11.92;95.34
65207;SHT31;58477;48.072;11.970;2023-10-09T04:08:58;11.82;95.28
65207;SHT31;58477;48.072;11.970;2023-10-09T04:11:39;11.82;95.36
65207;SHT31;58477;48.072;11.970;2023-10-09T04:14:08;11.82;95.08
65207;SHT31;58477;48.072;11.970;2023-10-09T04:16:38;11.91;94.58
65207;SHT31;58477;48.072;11.970;2023-10-09T04:19:16;11.92;94.84
65207;SHT31;58477;48.072;11.970;2023-10-09T04:21:47;11.87;94.58
65207;SHT31;58477;48.072;11.970;2023-10-09T04:24:13;11.98;94.11
65207;SHT31;58477;48.072;11.970;2023-10-09T04:26:40;11.88;94.46
65207;SHT31;58477;48.072;11.970;2023-10-09T04:29:16;11.95;94.73
65207;SHT31;58477;48.072;11.970;2023-10-09T04:31:52;12.04;94.39
65207;SHT31;58477;48.072;11.970;2023-10-09T04:34:19;12.04;94.17
65207;SHT31;58477;48.072;11.970;2023-10-09T04:36:50;12.01;93.61
65207;SHT31;58477;48.072;11.970;2023-10-09T04:39:42;12.17;93.36
65207;SHT31;58477;48.072;11.970;2023-10-09T04:42:15;12.20;92.81
65207;SHT31;58477;48.072;11.970;2023-10-09T04:44:50;12.15;92.99
65207;SHT31;58477;48.072;11.970;2023-10-09T04:47:35;12.14;92.30
65207;SHT31;58477;48.072;11.970;2023-10-09T04:50:09;12.22;92.21
65207;SHT31;58477;48.072;11.970;2023-10-09T04:52:38;12.34;91.88
65207;SHT31;58477;48.072;11.970;2023-10-09T04:55:05;12.25;91.70
65207;SHT31;58477;48.072;11.970;2023-10-09T04:57:34;12.28;91.78
65207;SHT31;58477;48.072;11.970;2023-10-09T05:00:15;12.34;91.46
65207;SHT31;58477;48.072;11.970;2023-10-09T05:02:55;12.29;91.34
65207;SHT31;58477;48.072;11.970;2023-10-09T05:05:22;12.35;91.22
65207;SHT31;58477;48.072;11.970;2023-10-09T05:08:10;12.36;90.34
65207;SHT31;58477;48.072;11.970;2023-10-09T05:11:04;12.42;89.73
65207;SHT31;58477;48.072;11.970;2023-10-09T05:13:30;12.48;89.52
65207;SHT31;58477;48.072;11.970;2023-10-09T05:16:21;12.57;88.68
65207;SHT31;58477;48.072;11.970;2023-10-09T05:18:48;12.76;88.38
65207;SHT31;58477;48.072;11.970;2023-10-09T05:21:27;12.85;87.93
65207;SHT31;58477;48.072;11.970;2023-10-09T05:23:57;12.99;87.10
65207;SHT31;58477;48.072;11.970;2023-10-09T05:29:22;13.26;86.92
65207;SHT31;58477;48.072;11.970;2023-10-09T05:31:54;13.39;86.32
65207;SHT31;58477;48.072;11.970;2023-10-09T05:34:29;13.51;85.32
65207;SHT31;58477;48.072;11.970;2023-10-09T05:37:21;13.77;84.74
65207;SHT31;58477;48.072;11.970;2023-10-09T05:39:59;13.89;84.40
65207;SHT31;58477;48.072;11.970;2023-10-09T05:42:25;14.04;83.83
65207;SHT31;58477;48.072;11.970;2023-10-09T05:47:52;14.26;82.78
65207;SHT31;58477;48.072;11.970;2023-10-09T05:50:36;14.39;83.31
65207;SHT31;58477;48.072;11.970;2023-10-09T05:53:25;14.46;83.17
65207;SHT31;58477;48.072;11.970;2023-10-09T05:56:09;14.50;83.31
65207;SHT31;58477;48.072;11.970;2023-10-09T05:58:53;14.55;82.51
65207;SHT31;58477;48.072;11.970;2023-10-09T06:01:37;14.62;82.75
65207;SHT31;58477;48.072;11.970;2023-10-09T06:04:21;14.62;82.74
65207;SHT31;58477;48.072;11.970;2023-10-09T06:07:01;14.68;82.45
65207;SHT31;58477;48.072;11.970;2023-10-09T06:09:36;14.63;82.56
65207;SHT31;58477;48.072;11.970;2023-10-09T06:12:25;14.50;82.73
65207;SHT31;58477;48.072;11.970;2023-10-09T06:15:14;14.55;82.61
65207;SHT31;58477;48.072;11.970;2023-10-09T06:18:09;14.56;82.94
65207;SHT31;58477;48.072;11.970;2023-10-09T06:20:55;14.42;82.95
65207;SHT31;58477;48.072;11.970;2023-10-09T06:23:44;14.45;83.70
65207;SHT31;58477;48.072;11.970;2023-10-09T06:26:34;14.55;83.02
65207;SHT31;58477;48.072;11.970;2023-10-09T06:28:59;14.59;84.11
65207;SHT31;58477;48.072;11.970;2023-10-09T06:31:40;14.80;84.05
65207;SHT31;58477;48.072;11.970;2023-10-09T06:34:30;15.30;82.20
65207;SHT31;58477;48.072;11.970;2023-10-09T06:37:01;15.71;81.19
65207;SHT31;58477;48.072;11.970;2023-10-09T06:39:42;15.81;79.34
65207;SHT31;58477;48.072;11.970;2023-10-09T06:42:37;16.90;77.32
65207;SHT31;58477;48.072;11.970;2023-10-09T06:45:08;17.64;76.84
65207;SHT31;58477;48.072;11.970;2023-10-09T06:47:49;17.31;76.42
65207;SHT31;58477;48.072;11.970;2023-10-09T06:50:24;17.06;77.84
65207;SHT31;58477;48.072;11.970;2023-10-09T06:52:53;17.07;77.03
65207;SHT31;58477;48.072;11.970;2023-10-09T06:55:37;16.81;77.47
65207;SHT31;58477;48.072;11.970;2023-10-09T07:01:03;17.07;76.60
65207;SHT31;58477;48.072;11.970;2023-10-09T07:04:05;18.43;74.92
65207;SHT31;58477;48.072;11.970;2023-10-09T07:06:47;19.51;70.86
65207;SHT31;58477;48.072;11.970;2023-10-09T07:09:13;20.41;69.24
65207;SHT31;58477;48.072;11.970;2023-10-09T07:11:40;20.80;68.82
65207;SHT31;58477;48.072;11.970;2023-10-09T07:14:07;20.48;69.74
65207;SHT31;58477;48.072;11.970;2023-10-09T07:16:33;20.32;70.14
65207;SHT31;58477;48.072;11.970;2023-10-09T07:19:22;20.56;70.05
65207;SHT31;58477;48.072;11.970;2023-10-09T07:22:04;19.86;72.89
65207;SHT31;58477;48.072;11.970;2023-10-09T07:24:32;19.22;74.04
65207;SHT31;58477;48.072;11.970;2023-10-09T07:27:11;19.00;74.36
65207;SHT31;58477;48.072;11.970;2023-10-09T07:29:41;19.00;75.37
65207;SHT31;58477;48.072;11.970;2023-10-09T07:32:16;19.75;73.68
65207;SHT31;58477;48.072;11.970;2023-10-09T07:34:49;21.61;68.91
65207;SHT31;58477;48.072;11.970;2023-10-09T07:37:27;21.88;66.02
65207;SHT31;58477;48.072;11.970;2023-10-09T07:40:02;22.68;64.74
65207;SHT31;58477;48.072;11.970;2023-10-09T07:42:32;23.75;64.16
65207;SHT31;58477;48.072;11.970;2023-10-09T07:45:07;24.23;62.39
65207;SHT31;58477;48.072;11.970;2023-10-09T07:47:48;23.75;62.22
65207;SHT31;58477;48.072;11.970;2023-10-09T07:50:28;24.09;61.19
65207;SHT31;58477;48.072;11.970;2023-10-09T07:53:17;23.49;60.02
65207;SHT31;58477;48.072;11.970;2023-10-09T07:55:55;23.41;60.62
65207;SHT31;58477;48.072;11.970;2023-10-09T07:58:26;23.05;61.52
65207;SHT31;58477;48.072;11.970;2023-10-09T08:00:56;23.55;59.97
65207;SHT31;58477;48.072;11.970;2023-10-09T08:03:44;24.49;58.39
65207;SHT31;58477;48.072;11.970;2023-10-09T08:06:15;23.49;60.63
65207;SHT31;58477;48.072;11.970;2023-10-09T08:08:59;22.07;62.35
65207;SHT31;58477;48.072;11.970;2023-10-09T08:11:29;21.51;65.69
65207;SHT31;58477;48.072;11.970;2023-10-09T08:14:20;20.74;64.84
65207;SHT31;58477;48.072;11.970;2023-10-09T08:17:06;20.09;65.85
65207;SHT31;58477;48.072;11.970;2023-10-09T08:19:52;20.57;66.70
65207;SHT31;58477;48.072;11.970;2023-10-09T08:22:36;22.59;61.92
65207;SHT31;58477;48.072;11.970;2023-10-09T08:25:12;23.48;59.90
65207;SHT31;58477;48.072;11.970;2023-10-09T08:28:00;23.95;59.21
65207;SHT31;58477;48.072;11.970;2023-10-09T08:30:44;24.09;59.03
65207;SHT31;58477;48.072;11.970;2023-10-09T08:33:29;23.90;59.38
65207;SHT31;58477;48.072;11.970;2023-10-09T08:36:10;22.73;61.22
65207;SHT31;58477;48.072;11.970;2023-10-09T08:38:39;22.71;61.14
65207;SHT31;58477;48.072;11.970;2023-10-09T08:41:11;22.21;61.76
65207;SHT31;58477;48.072;11.970;2023-10-09T08:43:53;22.24;64.33
65207;SHT31;58477;48.072;11.970;2023-10-09T08:46:20;21.95;64.66
65207;SHT31;58477;48.072;11.970;2023-10-09T08:48:48;21.92;63.25
65207;SHT31;58477;48.072;11.970;2023-10-09T08:51:13;21.92;63.52
65207;SHT31;58477;48.072;11.970;2023-10-09T08:53:39;22.13;63.50
65207;SHT31;58477;48.072;11.970;2023-10-09T08:56:12;22.23;63.89
65207;SHT31;58477;48.072;11.970;2023-10-09T08:58:40;22.02;63.12
65207;SHT31;58477;48.072;11.970;2023-10-09T09:01:06;21.75;64.34
65207;SHT31;58477;48.072;11.970;2023-10-09T09:03:39;22.00;64.73
65207;SHT31;58477;48.072;11.970;2023-10-09T09:06:06;21.92;64.96
65207;SHT31;58477;48.072;11.970;2023-10-09T09:08:33;22.10;65.59
65207;SHT31;58477;48.072;11.970;2023-10-09T09:11:03;22.26;63.06
65207;SHT31;58477;48.072;11.970;2023-10-09T09:13:38;21.95;63.58
65207;SHT31;58477;48.072;11.970;2023-10-09T09:16:13;21.88;62.42
65207;SHT31;58477;48.072;11.970;2023-10-09T09:18:56;21.79;61.72
65207;SHT31;58477;48.072;11.970;2023-10-09T09:21:38;21.78;62.50
65207;SHT31;58477;48.072;11.970;2023-10-09T09:24:04;22.07;64.20
65207;SHT31;58477;48.072;11.970;2023-10-09T09:27:00;22.06;62.65
65207;SHT31;58477;48.072;11.970;2023-10-09T09:32:02;22.27;62.73
65207;SHT31;58477;48.072;11.970;2023-10-09T09:34:51;21.96;62.11
65207;SHT31;58477;48.072;11.970;2023-10-09T09:37:21;21.69;61.24
65207;SHT31;58477;48.072;11.970;2023-10-09T09:39:50;22.12;61.68
65207;SHT31;58477;48.072;11.970;2023-10-09T09:42:17;22.23;61.64
65207;SHT31;58477;48.072;11.970;2023-10-09T09:44:44;22.05;61.92
65207;SHT31;58477;48.072;11.970;2023-10-09T09:47:14;22.07;62.67
65207;SHT31;58477;48.072;11.970;2023-10-09T09:49:50;22.14;61.47
65207;SHT31;58477;48.072;11.970;2023-10-09T09:52:16;22.46;62.67
65207;SHT31;58477;48.072;11.970;2023-10-09T09:54:43;22.20;61.69
65207;SHT31;58477;48.072;11.970;2023-10-09T09:57:12;22.32;62.46
65207;SHT31;58477;48.072;11.970;2023-10-09T09:59:40;22.40;62.18
65207;SHT31;58477;48.072;11.970;2023-10-09T10:02:07;22.95;61.47
65207;SHT31;58477;48.072;11.970;2023-10-09T10:04:38;22.60;60.71
65207;SHT31;58477;48.072;11.970;2023-10-09T10:07:06;22.43;61.60
65207;SHT31;58477;48.072;11.970;2023-10-09T10:09:41;22.30;61.57
65207;SHT31;58477;48.072;11.970;2023-10-09T10:12:10;22.54;62.80
65207;SHT31;58477;48.072;11.970;2023-10-09T10:14:55;22.95;61.16
65207;SHT31;58477;48.072;11.970;2023-10-09T10:20:24;22.44;60.17
65207;SHT31;58477;48.072;11.970;2023-10-09T10:22:53;22.70;59.25
65207;SHT31;58477;48.072;11.970;2023-10-09T10:25:37;22.86;59.59
65207;SHT31;58477;48.072;11.970;2023-10-09T10:28:27;23.12;60.44
65207;SHT31;58477;48.072;11.970;2023-10-09T10:31:08;23.18;59.34
65207;SHT31;58477;48.072;11.970;2023-10-09T10:36:24;23.63;58.41
65207;SHT31;58477;48.072;11.970;2023-10-09T10:39:02;23.48;58.19
65207;SHT31;58477;48.072;11.970;2023-10-09T10:41:33;23.44;59.02
65207;SHT31;58477;48.072;11.970;2023-10-09T10:44:04;23.49;57.63
65207;SHT31;58477;48.072;11.970;2023-10-09T10:46:55;23.45;59.34
65207;SHT31;58477;48.072;11.970;2023-10-09T10:49:21;23.34;59.00
65207;SHT31;58477;48.072;11.970;2023-10-09T10:51:48;23.45;57.59
65207;SHT31;58477;48.072;11.970;2023-10-09T10:54:21;23.42;57.41
65207;SHT31;58477;48.072;11.970;2023-10-09T10:56:59;23.73;58.03
65207;SHT31;58477;48.072;11.970;2023-10-09T10:59:30;24.02;58.34
65207;SHT31;58477;48.072;11.970;2023-10-09T11:02:03;23.39;56.07
65207;SHT31;58477;48.072;11.970;2023-10-09T11:04:34;23.58;57.52
65207;SHT31;58477;48.072;11.970;2023-10-09T11:07:10;23.44;56.71
65207;SHT31;58477;48.072;11.970;2023-10-09T11:09:48;22.87;58.86
65207;SHT31;58477;48.072;11.970;2023-10-09T11:12:45;22.87;58.13
65207;SHT31;58477;48.072;11.970;2023-10-09T11:15:34;22.70;56.45
65207;SHT31;58477;48.072;11.970;2023-10-09T11:18:10;22.78;57.88
65207;SHT31;58477;48.072;11.970;2023-10-09T11:20:57;22.95;59.38
65207;SHT31;58477;48.072;11.970;2023-10-09T11:23:32;23.35;56.30
65207;SHT31;58477;48.072;11.970;2023-10-09T11:26:19;24.88;52.18
65207;SHT31;58477;48.072;11.970;2023-10-09T11:29:15;24.67;52.66
65207;SHT31;58477;48.072;11.970;2023-10-09T11:32:05;25.24;53.92
65207;SHT31;58477;48.072;11.970;2023-10-09T11:34:32;26.04;52.31
65207;SHT31;58477;48.072;11.970;2023-10-09T11:37:20;25.68;51.80
65207;SHT31;58477;48.072;11.970;2023-10-09T11:39:58;26.14;53.09
65207;SHT31;58477;48.072;11.970;2023-10-09T11:42:24;25.11;52.58
65207;SHT31;58477;48.072;11.970;2023-10-09T11:45:26;24.74;52.96
65207;SHT31;58477;48.072;11.970;2023-10-09T11:48:15;24.64;52.87
65207;SHT31;58477;48.072;11.970;2023-10-09T11:50:47;23.75;53.19
65207;SHT31;58477;48.072;11.970;2023-10-09T11:53:22;23.79;52.90
65207;SHT31;58477;48.072;11.970;2023-10-09T11:55:48;23.76;54.17
65207;SHT31;58477;48.072;11.970;2023-10-09T11:58:18;23.73;55.52
65207;SHT31;58477;48.072;11.970;2023-10-09T12:00:54;23.68;54.21
65207;SHT31;58477;48.072;11.970;2023-10-09T12:03:31;23.32;55.10
65207;SHT31;58477;48.072;11.970;2023-10-09T12:05:57;23.45;54.55
65207;SHT31;58477;48.072;11.970;2023-10-09T12:08:26;23.69;54.77
65207;SHT31;58477;48.072;11.970;2023-10-09T12:10:55;24.05;55.57
65207;SHT31;58477;48.072;11.970;2023-10-09T12:13:24;24.12;55.35
65207;SHT31;58477;48.072;11.970;2023-10-09T12:15:51;24.19;55.77
65207;SHT31;58477;48.072;11.970;2023-10-09T12:18:23;23.80;53.25
65207;SHT31;58477;48.072;11.970;2023-10-09T12:20:49;23.78;53.66
65207;SHT31;58477;48.072;11.970;2023-10-09T12:23:17;24.08;53.01
65207;SHT31;58477;48.072;11.970;2023-10-09T12:25:43;23.98;55.75
65207;SHT31;58477;48.072;11.970;2023-10-09T12:28:12;23.98;52.87
65207;SHT31;58477;48.072;11.970;2023-10-09T12:30:38;24.02;53.76
65207;SHT31;58477;48.072;11.970;2023-10-09T12:33:07;23.58;53.34
65207;SHT31;58477;48.072;11.970;2023-10-09T12:35:37;23.54;56.43
65207;SHT31;58477;48.072;11.970;2023-10-09T12:38:04;23.31;54.57
65207;SHT31;58477;48.072;11.970;2023-10-09T12:40:34;23.39;54.87
65207;SHT31;58477;48.072;11.970;2023-10-09T12:43:00;23.38;56.68
65207;SHT31;58477;48.072;11.970;2023-10-09T12:45:26;23.51;55.13
65207;SHT31;58477;48.072;11.970;2023-10-09T12:47:54;23.28;54.73
65207;SHT31;58477;48.072;11.970;2023-10-09T12:50:34;23.25;56.94
65207;SHT31;58477;48.072;11.970;2023-10-09T12:53:00;22.81;56.77
65207;SHT31;58477;48.072;11.970;2023-10-09T12:55:36;22.86;56.17
65207;SHT31;58477;48.072;11.970;2023-10-09T12:58:03;22.86;56.49
65207;SHT31;58477;48.072;11.970;2023-10-09T13:00:33;23.03;57.09
65207;SHT31;58477;48.072;11.970;2023-10-09T13:02:59;22.94;57.13
65207;SHT31;58477;48.072;11.970;2023-10-09T13:05:27;22.63;57.05
65207;SHT31;58477;48.072;11.970;2023-10-09T13:07:53;22.64;57.75
65207;SHT31;58477;48.072;11.970;2023-10-09T13:10:23;22.36;59.39
65207;SHT31;58477;48.072;11.970;2023-10-09T13:12:49;22.39;60.49
65207;SHT31;58477;48.072;11.970;2023-10-09T13:15:20;22.37;59.42
65207;SHT31;58477;48.072;11.970;2023-10-09T13:17:46;22.24;58.50
65207;SHT31;58477;48.072;11.970;2023-10-09T13:20:11;22.02;59.57
65207;SHT31;58477;48.072;11.970;2023-10-09T13:22:42;21.97;58.78
65207;SHT31;58477;48.072;11.970;2023-10-09T13:25:11;21.86;59.46
65207;SHT31;58477;48.072;11.970;2023-10-09T13:27:50;21.76;60.80
65207;SHT31;58477;48.072;11.970;2023-10-09T13:30:18;21.66;60.94
65207;SHT31;58477;48.072;11.970;2023-10-09T13:32:53;21.51;61.25
65207;SHT31;58477;48.072;11.970;2023-10-09T13:35:19;21.48;60.50
65207;SHT31;58477;48.072;11.970;2023-10-09T13:37:45;21.41;60.61
65207;SHT31;58477;48.072;11.970;2023-10-09T13:40:22;21.31;62.31
65207;SHT31;58477;48.072;11.970;2023-10-09T13:42:58;20.94;61.94
65207;SHT31;58477;48.072;11.970;2023-10-09T13:45:27;20.85;62.88
65207;SHT31;58477;48.072;11.970;2023-10-09T13:47:56;20.88;61.80
65207;SHT31;58477;48.072;11.970;2023-10-09T13:50:24;20.76;63.58
65207;SHT31;58477;48.072;11.970;2023-10-09T13:52:54;20.74;62.64
65207;SHT31;58477;48.072;11.970;2023-10-09T13:55:19;20.91;62.14
65207;SHT31;58477;48.072;11.970;2023-10-09T13:57:45;20.68;62.06
65207;SHT31;58477;48.072;11.970;2023-10-09T14:00:14;20.67;60.49
65207;SHT31;58477;48.072;11.970;2023-10-09T14:02:43;20.70;60.12
65207;SHT31;58477;48.072;11.970;2023-10-09T14:05:09;20.67;61.27
65207;SHT31;58477;48.072;11.970;2023-10-09T14:07:34;20.74;59.70
65207;SHT31;58477;48.072;11.970;2023-10-09T14:10:00;20.68;60.63
65207;SHT31;58477;48.072;11.970;2023-10-09T14:12:43;20.63;61.19
65207;SHT31;58477;48.072;11.970;2023-10-09T14:15:09;20.46;61.59
65207;SHT31;58477;48.072;11.970;2023-10-09T14:17:42;20.37;64.60
65207;SHT31;58477;48.072;11.970;2023-10-09T14:20:08;19.63;70.29
65207;SHT31;58477;48.072;11.970;2023-10-09T14:22:55;18.94;74.34
65207;SHT31;58477;48.072;11.970;2023-10-09T14:25:21;18.57;72.74
65207;SHT31;58477;48.072;11.970;2023-10-09T14:27:47;18.26;74.47
65207;SHT31;58477;48.072;11.970;2023-10-09T14:30:13;18.03;77.98
65207;SHT31;58477;48.072;11.970;2023-10-09T14:32:48;17.91;76.65
65207;SHT31;58477;48.072;11.970;2023-10-09T14:35:19;18.30;72.32
65207;SHT31;58477;48.072;11.970;2023-10-09T14:37:47;18.39;72.24
65207;SHT31;58477;48.072;11.970;2023-10-09T14:40:12;18.30;74.41
65207;SHT31;58477;48.072;11.970;2023-10-09T14:42:46;18.46;75.55
65207;SHT31;58477;48.072;11.970;2023-10-09T14:45:12;18.49;74.88
65207;SHT31;58477;48.072;11.970;2023-10-09T14:47:43;18.53;74.21
65207;SHT31;58477;48.072;11.970;2023-10-09T14:50:08;18.60;73.86
65207;SHT31;58477;48.072;11.970;2023-10-09T14:52:35;18.63;75.12
65207;SHT31;58477;48.072;11.970;2023-10-09T14:55:05;18.66;74.56
65207;SHT31;58477;48.072;11.970;2023-10-09T14:57:30;18.70;73.26
65207;SHT31;58477;48.072;11.970;2023-10-09T14:59:59;18.74;70.84
65207;SHT31;58477;48.072;11.970;2023-10-09T15:02:24;18.76;74.29
65207;SHT31;58477;48.072;11.970;2023-10-09T15:04:50;18.76;73.40
65207;SHT31;58477;48.072;11.970;2023-10-09T15:07:18;18.67;76.23
65207;SHT31;58477;48.072;11.970;2023-10-09T15:09:44;18.63;76.08
65207;SHT31;58477;48.072;11.970;2023-10-09T15:12:09;18.60;75.62
65207;SHT31;58477;48.072;11.970;2023-10-09T15:14:36;18.59;74.67
65207;SHT31;58477;48.072;11.970;2023-10-09T15:17:02;18.47;74.96
65207;SHT31;58477;48.072;11.970;2023-10-09T15:19:28;18.57;74.47
65207;SHT31;58477;48.072;11.970;2023-10-09T15:21:57;18.57;73.53
65207;SHT31;58477;48.072;11.970;2023-10-09T15:24:24;18.68;72.54
65207;SHT31;58477;48.072;11.970;2023-10-09T15:26:51;18.67;72.90
65207;SHT31;58477;48.072;11.970;2023-10-09T15:29:26;18.80;72.16
65207;SHT31;58477;48.072;11.970;2023-10-09T15:32:00;18.83;71.99
65207;SHT31;58477;48.072;11.970;2023-10-09T15:34:35;18.86;72.41
65207;SHT31;58477;48.072;11.970;2023-10-09T15:37:01;18.78;72.53
65207;SHT31;58477;48.072;11.970;2023-10-09T15:39:29;18.76;73.34
65207;SHT31;58477;48.072;11.970;2023-10-09T15:41:56;18.66;73.31
65207;SHT31;58477;48.072;11.970;2023-10-09T15:44:21;18.67;72.50
65207;SHT31;58477;48.072;11.970;2023-10-09T15:46:50;18.60;73.06
65207;SHT31;58477;48.072;11.970;2023-10-09T15:49:18;18.44;72.98
65207;SHT31;58477;48.072;11.970;2023-10-09T15:51:44;18.46;73.34
65207;SHT31;58477;48.072;11.970;2023-10-09T15:54:12;18.50;73.77
65207;SHT31;58477;48.072;11.970;2023-10-09T15:56:39;18.44;73.82
65207;SHT31;58477;48.072;11.970;2023-10-09T15:59:07;18.26;72.77
65207;SHT31;58477;48.072;11.970;2023-10-09T16:01:33;18.23;72.86
65207;SHT31;58477;48.072;11.970;2023-10-09T16:04:00;18.29;71.78
65207;SHT31;58477;48.072;11.970;2023-10-09T16:06:26;18.22;72.79
65207;SHT31;58477;48.072;11.970;2023-10-09T16:08:56;18.36;72.81
65207;SHT31;58477;48.072;11.970;2023-10-09T16:11:22;18.37;73.41
65207;SHT31;58477;48.072;11.970;2023-10-09T16:13:51;18.46;72.81
65207;SHT31;58477;48.072;11.970;2023-10-09T16:16:29;18.30;73.90